Saltar para o conteúdo principal

V.N.Cerveira (Aeródromo)

ID 1210604 · 41.9667, -8.6668 mapa

Última leitura · 2026-05-09 19:00 (Europe/Lisbon)

Temperatura
15.3 °C
Humidade
86 %
Pressão
1,005.3 hPa
Precipitação
0.1 mm
Radiação
347 W/m²
Velocidade do vento
6.5 km/h
Direcção do vento
SE · Sudeste

Histórico de 24 horas

Hora (Europe/Lisbon) Temperatura Humidade Pressão Chuva Vento Direcção
2026-05-09 19:00 15.3 °C 86 % 1,005.3 0.1 mm 6.5 km/h SE
2026-05-09 18:00 15.8 °C 85 % 1,004.8 0.0 mm 6.5 km/h SE
2026-05-09 17:00 14.8 °C 87 % 1,004.8 0.3 mm 4.0 km/h SW
2026-05-09 16:00 15.6 °C 86 % 1,004.3 1.0 mm 9.7 km/h S
2026-05-09 15:00 17.7 °C 81 % 1,003.9 0.0 mm 6.1 km/h S
2026-05-09 14:00 13.8 °C 97 % 1,004.6 4.1 mm 6.1 km/h N
2026-05-09 13:00 13.7 °C 94 % 1,004.8 0.5 mm 9.0 km/h W
2026-05-09 12:00 15.8 °C 81 % 1,004.3 0.1 mm 9.0 km/h W
2026-05-09 11:00 15.8 °C 82 % 1,004.4 0.0 mm 2.9 km/h NE
2026-05-09 10:00 14.8 °C 86 % 1,004.7 0.3 mm 3.2 km/h N
2026-05-09 09:00 14.0 °C 88 % 1,004.8 0.0 mm 3.6 km/h E
2026-05-09 08:00 12.1 °C 96 % 1,004.8 0.0 mm 4.7 km/h E
2026-05-09 07:00 9.6 °C 100 % 1,004.7 0.0 mm 1.1 km/h SE
2026-05-09 06:00 10.2 °C 98 % 1,004.8 0.1 mm 5.0 km/h SE
2026-05-09 05:00 11.1 °C 98 % 1,005.0 0.0 mm 5.0 km/h NE
2026-05-09 04:00 11.6 °C 97 % 1,005.1 0.0 mm 3.6 km/h SE
2026-05-09 03:00 12.2 °C 93 % 1,005.8 0.8 mm 4.3 km/h W
2026-05-09 02:00 12.3 °C 89 % 1,005.7 0.0 mm 6.8 km/h SW
2026-05-09 01:00 11.7 °C 92 % 1,006.0 0.0 mm 3.6 km/h W
2026-05-09 00:00 10.6 °C 96 % 1,006.7 0.0 mm 2.9 km/h W
2026-05-08 23:00 10.6 °C 94 % 1,007.5 0.0 mm 2.9 km/h SE
2026-05-08 22:00 11.5 °C 91 % 1,007.7 0.0 mm 3.2 km/h S
2026-05-08 21:00 14.0 °C 81 % 1,007.7 0.0 mm 2.2 km/h SE
2026-05-08 20:00 17.9 °C 55 % 1,007.7 0.0 mm 2.9 km/h N